PWSweather.com
Personal Weather Stations
Station Observations
ESTFIQ
Santa Fe, Santa FeAR 3000

Santa FeSanta FeAR 3000

Lat: -31.637, Lon: -60.708

Elevation: 69

Station Type: WH-1081

http://galileo4.unl.edu.ar/estacion

Latest ConditionsUpdated 8:10:01 AM GMT-03:57 Sunday, Jan 20, 2019
Currently Today's Max Today's Min Today's Average
Temperature 72.1°F22.3°C 72.1°F22.3°C 67.5°F19.7°C 69.6°F20.9°C
Dew Point 59.8°F15.4°C 63.2°F17.3°C 58.3°F14.6°C 60.7°F15.9°C
Winds 5.4 mph ENE8.7 kmh ENE 8.3 mph -13.4 kmh - - 3.6 mph 5.8 kmh
Wind Gusts 14.5 mph23.3 kmh 14.5 mph23.3 kmh - -
Humidity 65% 85% 65% 74%
Pressure 29.99 in1015.6 mb 30.02 in1016.6 mb 29.96 in1014.6 mb -
Hour Temp Dew Point Humidity Winds Wind Gusts Pressure Precip Precip Rate Daily Precip Total
08:10 AM 72.1°F22.3°C 59.8°F15.4°C 65% 5.4 mph ENE8.7 kmh ENE 14.5 mph23.3 kmh 29.99 in1015.6 mb 0.00 in0.0 mm 0.00 in0.0 mm 0.00 in0.0 mm
08:05 AM 72.1°F22.3°C 60.2°F15.7°C 66% 4.5 mph NE7.2 kmh NE 14.5 mph23.3 kmh 29.98 in1015.2 mb 0.00 in0.0 mm 0.00 in0.0 mm 0.00 in0.0 mm
08:00 AM 72.1°F22.3°C 60.2°F15.7°C 66% 6.9 mph ENE11.1 kmh ENE 11.4 mph18.3 kmh 29.99 in1015.6 mb 0.00 in0.0 mm 0.00 in0.0 mm 0.00 in0.0 mm
07:55 AM 72.1°F22.3°C 60.6°F15.9°C 67% 5.4 mph ENE8.7 kmh ENE 12.1 mph19.5 kmh 29.99 in1015.6 mb 0.00 in0.0 mm 0.00 in0.0 mm 0.00 in0.0 mm
07:50 AM 71.8°F22.1°C 60.7°F15.9°C 68% 6.9 mph ENE11.1 kmh ENE 12.1 mph19.5 kmh 29.99 in1015.6 mb 0.00 in0.0 mm 0.00 in0.0 mm 0.00 in0.0 mm
07:45 AM 71.8°F22.1°C 60.7°F15.9°C 68% 7.6 mph E12.2 kmh E 12.1 mph19.5 kmh 29.99 in1015.6 mb 0.00 in0.0 mm 0.00 in0.0 mm 0.00 in0.0 mm
07:40 AM 71.6°F22.0°C 60.5°F15.8°C 68% 5.4 mph ENE8.7 kmh ENE 12.1 mph19.5 kmh 29.99 in1015.6 mb 0.00 in0.0 mm 0.00 in0.0 mm 0.00 in0.0 mm
07:35 AM 71.6°F22.0°C 60.9°F16.1°C 69% 3.8 mph ENE6.1 kmh ENE 13.0 mph20.9 kmh 29.99 in1015.6 mb 0.00 in0.0 mm 0.00 in0.0 mm 0.00 in0.0 mm
07:30 AM 71.2°F21.8°C 61.0°F16.1°C 70% 4.5 mph E7.2 kmh E 13.0 mph20.9 kmh 29.99 in1015.6 mb 0.00 in0.0 mm 0.00 in0.0 mm 0.00 in0.0 mm
07:25 AM 71.6°F22.0°C 60.9°F16.1°C 69% 5.4 mph ENE8.7 kmh ENE 10.7 mph17.2 kmh 29.99 in1015.6 mb 0.00 in0.0 mm 0.00 in0.0 mm 0.00 in0.0 mm
07:20 AM 71.1°F21.7°C 61.6°F16.4°C 72% 4.5 mph ENE7.2 kmh ENE 9.2 mph14.8 kmh 29.98 in1015.2 mb 0.00 in0.0 mm 0.00 in0.0 mm 0.00 in0.0 mm
07:15 AM 70.5°F21.4°C 61.5°F16.4°C 73% 3.1 mph E5.0 kmh E 9.2 mph14.8 kmh 29.99 in1015.6 mb 0.00 in0.0 mm 0.00 in0.0 mm 0.00 in0.0 mm
07:10 AM 70.2°F21.2°C 61.1°F16.2°C 73% 3.8 mph E6.1 kmh E 10.7 mph17.2 kmh 29.98 in1015.2 mb 0.00 in0.0 mm 0.00 in0.0 mm 0.00 in0.0 mm
07:05 AM 69.8°F21.0°C 61.2°F16.2°C 74% 4.5 mph E7.2 kmh E 13.0 mph20.9 kmh 29.98 in1015.2 mb 0.00 in0.0 mm 0.00 in0.0 mm 0.00 in0.0 mm
07:00 AM 69.6°F20.9°C 61.4°F16.3°C 75% 5.4 mph E8.7 kmh E 13.0 mph20.9 kmh 29.98 in1015.2 mb 0.00 in0.0 mm 0.00 in0.0 mm 0.00 in0.0 mm
06:55 AM 69.8°F21.0°C 61.5°F16.4°C 75% 7.6 mph E12.2 kmh E 11.4 mph18.3 kmh 29.98 in1015.2 mb 0.00 in0.0 mm 0.00 in0.0 mm 0.00 in0.0 mm
06:50 AM 69.8°F21.0°C 61.5°F16.4°C 75% 8.3 mph E13.4 kmh E 10.7 mph17.2 kmh 29.98 in1015.2 mb 0.00 in0.0 mm 0.00 in0.0 mm 0.00 in0.0 mm
06:45 AM 69.4°F20.8°C 62.3°F16.8°C 78% 6.0 mph E9.7 kmh E 9.2 mph14.8 kmh 29.98 in1015.2 mb 0.00 in0.0 mm 0.00 in0.0 mm 0.00 in0.0 mm
06:40 AM 69.1°F20.6°C 62.0°F16.7°C 78% 1.6 mph E2.6 kmh E 8.3 mph13.4 kmh 29.98 in1015.2 mb 0.00 in0.0 mm 0.00 in0.0 mm 0.00 in0.0 mm
06:35 AM 69.1°F20.6°C 62.3°F16.8°C 79% 6.9 mph E11.1 kmh E 9.2 mph14.8 kmh 29.98 in1015.2 mb 0.00 in0.0 mm 0.00 in0.0 mm 0.00 in0.0 mm
06:30 AM 68.9°F20.5°C 62.5°F16.9°C 80% 5.4 mph E8.7 kmh E 9.2 mph14.8 kmh 29.98 in1015.2 mb 0.00 in0.0 mm 0.00 in0.0 mm 0.00 in0.0 mm
06:25 AM 68.7°F20.4°C 62.3°F16.8°C 80% 3.1 mph E5.0 kmh E 7.6 mph12.2 kmh 29.98 in1015.2 mb 0.00 in0.0 mm 0.00 in0.0 mm 0.00 in0.0 mm
06:20 AM 68.5°F20.3°C 62.2°F16.8°C 80% 6.0 mph E9.7 kmh E 6.9 mph11.1 kmh 29.98 in1015.2 mb 0.00 in0.0 mm 0.00 in0.0 mm 0.00 in0.0 mm
06:15 AM 68.5°F20.3°C 62.5°F16.9°C 81% 4.5 mph E7.2 kmh E 7.6 mph12.2 kmh 29.98 in1015.2 mb 0.00 in0.0 mm 0.00 in0.0 mm 0.00 in0.0 mm
06:10 AM 68.2°F20.1°C 62.5°F16.9°C 82% 5.4 mph E8.7 kmh E 7.6 mph12.2 kmh 29.98 in1015.2 mb 0.00 in0.0 mm 0.00 in0.0 mm 0.00 in0.0 mm
06:05 AM 68.0°F20.0°C 62.3°F16.8°C 82% 4.5 mph E7.2 kmh E 7.6 mph12.2 kmh 29.98 in1015.2 mb 0.00 in0.0 mm 0.00 in0.0 mm 0.00 in0.0 mm
06:00 AM 68.0°F20.0°C 62.7°F17.1°C 83% 3.8 mph E6.1 kmh E 7.6 mph12.2 kmh 29.97 in1014.9 mb 0.00 in0.0 mm 0.00 in0.0 mm 0.00 in0.0 mm
05:55 AM 68.0°F20.0°C 63.0°F17.2°C 84% 2.2 mph E3.5 kmh E 7.6 mph12.2 kmh 29.97 in1014.9 mb 0.00 in0.0 mm 0.00 in0.0 mm 0.00 in0.0 mm
05:50 AM 67.8°F19.9°C 63.2°F17.3°C 85% 3.8 mph E6.1 kmh E 7.6 mph12.2 kmh 29.97 in1014.9 mb 0.00 in0.0 mm 0.00 in0.0 mm 0.00 in0.0 mm
05:45 AM 67.6°F19.8°C 63.0°F17.2°C 85% 4.5 mph E7.2 kmh E 7.6 mph12.2 kmh 29.96 in1014.6 mb 0.00 in0.0 mm 0.00 in0.0 mm 0.00 in0.0 mm
05:40 AM 67.5°F19.7°C 62.5°F16.9°C 84% 1.6 mph E2.6 kmh E 6.9 mph11.1 kmh 29.97 in1014.9 mb 0.00 in0.0 mm 0.00 in0.0 mm 0.00 in0.0 mm
05:35 AM 67.5°F19.7°C 62.5°F16.9°C 84% 3.1 mph E5.0 kmh E 6.9 mph11.1 kmh 29.97 in1014.9 mb 0.00 in0.0 mm 0.00 in0.0 mm 0.00 in0.0 mm
05:30 AM 67.5°F19.7°C 62.5°F16.9°C 84% 5.4 mph E8.7 kmh E 6.9 mph11.1 kmh 29.97 in1014.9 mb 0.00 in0.0 mm 0.00 in0.0 mm 0.00 in0.0 mm
05:25 AM 67.5°F19.7°C 62.1°F16.7°C 83% 3.1 mph E5.0 kmh E 6.0 mph9.7 kmh 29.97 in1014.9 mb 0.00 in0.0 mm 0.00 in0.0 mm 0.00 in0.0 mm
05:20 AM 67.6°F19.8°C 62.3°F16.8°C 83% 3.1 mph E5.0 kmh E 6.0 mph9.7 kmh 29.97 in1014.9 mb 0.00 in0.0 mm 0.00 in0.0 mm 0.00 in0.0 mm
05:15 AM 67.8°F19.9°C 62.1°F16.7°C 82% 4.5 mph E7.2 kmh E 6.0 mph9.7 kmh 29.97 in1014.9 mb 0.00 in0.0 mm 0.00 in0.0 mm 0.00 in0.0 mm
05:10 AM 68.0°F20.0°C 61.6°F16.4°C 80% 4.5 mph E7.2 kmh E 8.3 mph13.4 kmh 29.97 in1014.9 mb 0.00 in0.0 mm 0.00 in0.0 mm 0.00 in0.0 mm
05:05 AM 68.0°F20.0°C 61.6°F16.4°C 80% 5.4 mph E8.7 kmh E 8.3 mph13.4 kmh 29.97 in1014.9 mb 0.00 in0.0 mm 0.00 in0.0 mm 0.00 in0.0 mm
05:00 AM 68.4°F20.2°C 62.0°F16.7°C 80% 4.5 mph E7.2 kmh E 8.3 mph13.4 kmh 29.98 in1015.2 mb 0.00 in0.0 mm 0.00 in0.0 mm 0.00 in0.0 mm
04:55 AM 68.4°F20.2°C 62.0°F16.7°C 80% 5.4 mph E8.7 kmh E 6.9 mph11.1 kmh 29.97 in1014.9 mb 0.00 in0.0 mm 0.00 in0.0 mm 0.00 in0.0 mm
04:50 AM 68.4°F20.2°C 62.3°F16.8°C 81% 3.1 mph E5.0 kmh E 6.0 mph9.7 kmh 29.97 in1014.9 mb 0.00 in0.0 mm 0.00 in0.0 mm 0.00 in0.0 mm
04:45 AM 68.2°F20.1°C 62.2°F16.8°C 81% 3.8 mph E6.1 kmh E 5.4 mph8.7 kmh 29.97 in1014.9 mb 0.00 in0.0 mm 0.00 in0.0 mm 0.00 in0.0 mm
04:40 AM 68.0°F20.0°C 62.0°F16.7°C 81% 3.1 mph E5.0 kmh E 5.4 mph8.7 kmh 29.97 in1014.9 mb 0.00 in0.0 mm 0.00 in0.0 mm 0.00 in0.0 mm
04:35 AM 68.0°F20.0°C 61.6°F16.4°C 80% 2.2 mph E3.5 kmh E 3.8 mph6.1 kmh 29.97 in1014.9 mb 0.00 in0.0 mm 0.00 in0.0 mm 0.00 in0.0 mm
04:30 AM 68.0°F20.0°C 61.6°F16.4°C 80% 2.2 mph E3.5 kmh E 3.8 mph6.1 kmh 29.97 in1014.9 mb 0.00 in0.0 mm 0.00 in0.0 mm 0.00 in0.0 mm
04:25 AM 68.0°F20.0°C 61.6°F16.4°C 80% 0.7 mph E1.1 kmh E 4.5 mph7.2 kmh 29.96 in1014.6 mb 0.00 in0.0 mm 0.00 in0.0 mm 0.00 in0.0 mm
04:20 AM 68.2°F20.1°C 61.4°F16.3°C 79% 2.2 mph E3.5 kmh E 5.4 mph8.7 kmh 29.97 in1014.9 mb 0.00 in0.0 mm 0.00 in0.0 mm 0.00 in0.0 mm
04:15 AM 68.2°F20.1°C 61.4°F16.3°C 79% 3.8 mph E6.1 kmh E 5.4 mph8.7 kmh 29.96 in1014.6 mb 0.00 in0.0 mm 0.00 in0.0 mm 0.00 in0.0 mm
04:10 AM 68.2°F20.1°C 61.1°F16.2°C 78% 3.1 mph E5.0 kmh E 5.4 mph8.7 kmh 29.97 in1014.9 mb 0.00 in0.0 mm 0.00 in0.0 mm 0.00 in0.0 mm
04:05 AM 68.4°F20.2°C 61.3°F16.3°C 78% 2.2 mph E3.5 kmh E 5.4 mph8.7 kmh 29.97 in1014.9 mb 0.00 in0.0 mm 0.00 in0.0 mm 0.00 in0.0 mm
04:00 AM 68.5°F20.3°C 61.4°F16.3°C 78% 3.1 mph E5.0 kmh E 5.4 mph8.7 kmh 29.97 in1014.9 mb 0.00 in0.0 mm 0.00 in0.0 mm 0.00 in0.0 mm
03:55 AM 68.7°F20.4°C 62.0°F16.7°C 79% 2.2 mph E3.5 kmh E 3.8 mph6.1 kmh 29.97 in1014.9 mb 0.00 in0.0 mm 0.00 in0.0 mm 0.00 in0.0 mm
03:50 AM 68.5°F20.3°C 61.4°F16.3°C 78% 1.6 mph SE2.6 kmh SE 5.4 mph8.7 kmh 29.97 in1014.9 mb 0.00 in0.0 mm 0.00 in0.0 mm 0.00 in0.0 mm
03:45 AM 68.9°F20.5°C 61.8°F16.6°C 78% 2.2 mph SE3.5 kmh SE 5.4 mph8.7 kmh 29.97 in1014.9 mb 0.00 in0.0 mm 0.00 in0.0 mm 0.00 in0.0 mm
03:40 AM 68.9°F20.5°C 61.4°F16.3°C 77% 4.5 mph SE7.2 kmh SE 5.4 mph8.7 kmh 29.98 in1015.2 mb 0.00 in0.0 mm 0.00 in0.0 mm 0.00 in0.0 mm
03:35 AM 69.3°F20.7°C 61.0°F16.1°C 75% 2.2 mph SE3.5 kmh SE 5.4 mph8.7 kmh 29.97 in1014.9 mb 0.00 in0.0 mm 0.00 in0.0 mm 0.00 in0.0 mm
03:30 AM 69.3°F20.7°C 60.6°F15.9°C 74% 1.6 mph ESE2.6 kmh ESE 6.0 mph9.7 kmh 29.98 in1015.2 mb 0.00 in0.0 mm 0.00 in0.0 mm 0.00 in0.0 mm
03:25 AM 69.3°F20.7°C 60.3°F15.7°C 73% 3.8 mph E6.1 kmh E 6.0 mph9.7 kmh 29.97 in1014.9 mb 0.00 in0.0 mm 0.00 in0.0 mm 0.00 in0.0 mm
03:20 AM 69.3°F20.7°C 59.9°F15.5°C 72% 2.2 mph E3.5 kmh E 4.5 mph7.2 kmh 29.98 in1015.2 mb 0.00 in0.0 mm 0.00 in0.0 mm 0.00 in0.0 mm
03:15 AM 69.4°F20.8°C 60.0°F15.6°C 72% 2.2 mph E3.5 kmh E 6.0 mph9.7 kmh 29.98 in1015.2 mb 0.00 in0.0 mm 0.00 in0.0 mm 0.00 in0.0 mm
03:10 AM 69.4°F20.8°C 60.4°F15.8°C 73% 1.6 mph E2.6 kmh E 6.0 mph9.7 kmh 29.97 in1014.9 mb 0.00 in0.0 mm 0.00 in0.0 mm 0.00 in0.0 mm
03:05 AM 69.4°F20.8°C 60.0°F15.6°C 72% 3.1 mph E5.0 kmh E 5.4 mph8.7 kmh 29.97 in1014.9 mb 0.00 in0.0 mm 0.00 in0.0 mm 0.00 in0.0 mm
03:00 AM 69.6°F20.9°C 60.2°F15.7°C 72% 3.1 mph E5.0 kmh E 5.4 mph8.7 kmh 29.97 in1014.9 mb 0.00 in0.0 mm 0.00 in0.0 mm 0.00 in0.0 mm
02:55 AM 69.6°F20.9°C 60.2°F15.7°C 72% 3.1 mph E5.0 kmh E 5.4 mph8.7 kmh 29.97 in1014.9 mb 0.00 in0.0 mm 0.00 in0.0 mm 0.00 in0.0 mm
02:50 AM 69.6°F20.9°C 60.2°F15.7°C 72% 3.8 mph E6.1 kmh E 5.4 mph8.7 kmh 29.97 in1014.9 mb 0.00 in0.0 mm 0.00 in0.0 mm 0.00 in0.0 mm
02:45 AM 69.6°F20.9°C 59.8°F15.4°C 71% 3.8 mph E6.1 kmh E 4.5 mph7.2 kmh 29.97 in1014.9 mb 0.00 in0.0 mm 0.00 in0.0 mm 0.00 in0.0 mm
02:40 AM 69.6°F20.9°C 59.8°F15.4°C 71% 2.2 mph E3.5 kmh E 5.4 mph8.7 kmh 29.97 in1014.9 mb 0.00 in0.0 mm 0.00 in0.0 mm 0.00 in0.0 mm
02:35 AM 69.8°F21.0°C 59.6°F15.3°C 70% 3.8 mph E6.1 kmh E 6.0 mph9.7 kmh 29.98 in1015.2 mb 0.00 in0.0 mm 0.00 in0.0 mm 0.00 in0.0 mm
02:30 AM 69.8°F21.0°C 59.6°F15.3°C 70% 3.1 mph E5.0 kmh E 6.0 mph9.7 kmh 29.97 in1014.9 mb 0.00 in0.0 mm 0.00 in0.0 mm 0.00 in0.0 mm
02:25 AM 69.6°F20.9°C 59.8°F15.4°C 71% 3.8 mph E6.1 kmh E 5.4 mph8.7 kmh 29.98 in1015.2 mb 0.00 in0.0 mm 0.00 in0.0 mm 0.00 in0.0 mm
02:20 AM 69.6°F20.9°C 59.8°F15.4°C 71% 2.2 mph E3.5 kmh E 4.5 mph7.2 kmh 29.98 in1015.2 mb 0.00 in0.0 mm 0.00 in0.0 mm 0.00 in0.0 mm
02:15 AM 69.6°F20.9°C 59.8°F15.4°C 71% 2.2 mph E3.5 kmh E 5.4 mph8.7 kmh 29.98 in1015.2 mb 0.00 in0.0 mm 0.00 in0.0 mm 0.00 in0.0 mm
02:10 AM 69.8°F21.0°C 59.2°F15.1°C 69% 2.2 mph E3.5 kmh E 5.4 mph8.7 kmh 29.98 in1015.2 mb 0.00 in0.0 mm 0.00 in0.0 mm 0.00 in0.0 mm
02:05 AM 69.8°F21.0°C 59.2°F15.1°C 69% 2.2 mph ENE3.5 kmh ENE 5.4 mph8.7 kmh 29.99 in1015.6 mb 0.00 in0.0 mm 0.00 in0.0 mm 0.00 in0.0 mm
02:00 AM 69.8°F21.0°C 58.8°F14.9°C 68% 2.2 mph E3.5 kmh E 5.4 mph8.7 kmh 29.99 in1015.6 mb 0.00 in0.0 mm 0.00 in0.0 mm 0.00 in0.0 mm
01:55 AM 70.2°F21.2°C 58.7°F14.8°C 67% 1.6 mph E2.6 kmh E 5.4 mph8.7 kmh 29.98 in1015.2 mb 0.00 in0.0 mm 0.00 in0.0 mm 0.00 in0.0 mm
01:50 AM 70.2°F21.2°C 58.3°F14.6°C 66% 2.2 mph E3.5 kmh E 5.4 mph8.7 kmh 29.99 in1015.6 mb 0.00 in0.0 mm 0.00 in0.0 mm 0.00 in0.0 mm
01:45 AM 70.2°F21.2°C 58.3°F14.6°C 66% 3.8 mph E6.1 kmh E 5.4 mph8.7 kmh 29.99 in1015.6 mb 0.00 in0.0 mm 0.00 in0.0 mm 0.00 in0.0 mm
01:40 AM 70.3°F21.3°C 58.9°F14.9°C 67% 3.1 mph E5.0 kmh E 5.4 mph8.7 kmh 29.99 in1015.6 mb 0.00 in0.0 mm 0.00 in0.0 mm 0.00 in0.0 mm
01:35 AM 70.3°F21.3°C 59.3°F15.2°C 68% 3.8 mph E6.1 kmh E 5.4 mph8.7 kmh 29.99 in1015.6 mb 0.00 in0.0 mm 0.00 in0.0 mm 0.00 in0.0 mm
01:30 AM 70.3°F21.3°C 59.7°F15.4°C 69% 2.2 mph E3.5 kmh E 4.5 mph7.2 kmh 29.99 in1015.6 mb 0.00 in0.0 mm 0.00 in0.0 mm 0.00 in0.0 mm
01:25 AM 70.3°F21.3°C 59.7°F15.4°C 69% 2.2 mph E3.5 kmh E 5.4 mph8.7 kmh 29.99 in1015.6 mb 0.00 in0.0 mm 0.00 in0.0 mm 0.00 in0.0 mm
01:20 AM 70.5°F21.4°C 59.9°F15.5°C 69% 2.2 mph E3.5 kmh E 6.0 mph9.7 kmh 29.99 in1015.6 mb 0.00 in0.0 mm 0.00 in0.0 mm 0.00 in0.0 mm
01:15 AM 70.5°F21.4°C 59.9°F15.5°C 69% 3.8 mph E6.1 kmh E 6.0 mph9.7 kmh 29.99 in1015.6 mb 0.00 in0.0 mm 0.00 in0.0 mm 0.00 in0.0 mm
01:10 AM 70.5°F21.4°C 59.5°F15.3°C 68% 3.1 mph E5.0 kmh E 5.4 mph8.7 kmh 29.99 in1015.6 mb 0.00 in0.0 mm 0.00 in0.0 mm 0.00 in0.0 mm
01:05 AM 70.5°F21.4°C 59.5°F15.3°C 68% 2.2 mph E3.5 kmh E 5.4 mph8.7 kmh 30.00 in1015.9 mb 0.00 in0.0 mm 0.00 in0.0 mm 0.00 in0.0 mm
01:00 AM 70.5°F21.4°C 59.1°F15.1°C 67% 3.8 mph E6.1 kmh E 5.4 mph8.7 kmh 30.00 in1015.9 mb 0.00 in0.0 mm 0.00 in0.0 mm 0.00 in0.0 mm
12:55 AM 70.5°F21.4°C 59.1°F15.1°C 67% 2.2 mph E3.5 kmh E 5.4 mph8.7 kmh 30.00 in1015.9 mb 0.00 in0.0 mm 0.00 in0.0 mm 0.00 in0.0 mm
12:50 AM 70.5°F21.4°C 59.1°F15.1°C 67% 2.2 mph E3.5 kmh E 5.4 mph8.7 kmh 30.00 in1015.9 mb 0.00 in0.0 mm 0.00 in0.0 mm 0.00 in0.0 mm
12:45 AM 70.5°F21.4°C 59.1°F15.1°C 67% 2.2 mph E3.5 kmh E 5.4 mph8.7 kmh 30.00 in1015.9 mb 0.00 in0.0 mm 0.00 in0.0 mm 0.00 in0.0 mm
12:40 AM 70.7°F21.5°C 59.2°F15.1°C 67% 3.1 mph E5.0 kmh E 5.4 mph8.7 kmh 30.00 in1015.9 mb 0.00 in0.0 mm 0.00 in0.0 mm 0.00 in0.0 mm
12:35 AM 70.7°F21.5°C 58.8°F14.9°C 66% 3.1 mph E5.0 kmh E 4.5 mph7.2 kmh 30.00 in1015.9 mb 0.00 in0.0 mm 0.00 in0.0 mm 0.00 in0.0 mm
12:30 AM 70.9°F21.6°C 59.0°F15.0°C 66% 3.1 mph E5.0 kmh E 5.4 mph8.7 kmh 30.01 in1016.3 mb 0.00 in0.0 mm 0.00 in0.0 mm 0.00 in0.0 mm
12:25 AM 70.9°F21.6°C 59.0°F15.0°C 66% 3.8 mph E6.1 kmh E 5.4 mph8.7 kmh 30.01 in1016.3 mb 0.00 in0.0 mm 0.00 in0.0 mm 0.00 in0.0 mm
12:20 AM 70.9°F21.6°C 59.0°F15.0°C 66% 3.1 mph E5.0 kmh E 6.9 mph11.1 kmh 30.01 in1016.3 mb 0.00 in0.0 mm 0.00 in0.0 mm 0.00 in0.0 mm
12:15 AM 70.9°F21.6°C 58.6°F14.8°C 65% 2.2 mph E3.5 kmh E 6.9 mph11.1 kmh 30.01 in1016.3 mb 0.00 in0.0 mm 0.00 in0.0 mm 0.00 in0.0 mm
12:10 AM 71.1°F21.7°C 59.2°F15.1°C 66% 4.5 mph E7.2 kmh E 6.9 mph11.1 kmh 30.01 in1016.3 mb 0.00 in0.0 mm 0.00 in0.0 mm 0.00 in0.0 mm
12:05 AM 71.2°F21.8°C 58.9°F14.9°C 65% 3.1 mph E5.0 kmh E 6.9 mph11.1 kmh 30.01 in1016.3 mb 0.00 in0.0 mm 0.00 in0.0 mm 0.00 in0.0 mm
12:00 AM 71.2°F21.8°C 58.9°F14.9°C 65% 3.8 mph E6.1 kmh E 6.9 mph11.1 kmh 30.02 in1016.6 mb 0.00 in0.0 mm 0.00 in0.0 mm 0.00 in0.0 mm